createdAt,value
2022-08-04T00:01:34.010Z,2.50
2022-08-04T00:04:03.972Z,2.88
2022-08-04T00:06:34.514Z,2.55
2022-08-04T00:09:08.055Z,2.70
2022-08-04T00:11:35.074Z,2.85
2022-08-04T00:14:06.058Z,2.95
2022-08-04T00:16:37.588Z,2.58
2022-08-04T00:19:08.731Z,3.03
2022-08-04T00:21:36.562Z,2.90
2022-08-04T00:24:12.336Z,2.30
2022-08-04T00:26:39.694Z,2.70
2022-08-04T00:29:06.096Z,3.13
2022-08-04T00:31:53.871Z,3.10
2022-08-04T00:34:19.227Z,2.30
2022-08-04T00:36:45.983Z,3.00
2022-08-04T00:39:13.295Z,2.70
2022-08-04T00:42:01.372Z,2.50
2022-08-04T00:44:36.595Z,2.60
2022-08-04T00:47:17.349Z,2.67
2022-08-04T00:49:43.749Z,2.90
2022-08-04T00:52:32.014Z,2.60
2022-08-04T00:55:06.901Z,3.27
2022-08-04T00:57:41.471Z,3.10
2022-08-04T01:00:10.498Z,2.70
2022-08-04T01:02:38.334Z,2.63
2022-08-04T01:05:20.495Z,2.80
2022-08-04T01:07:57.545Z,3.10
2022-08-04T01:10:32.848Z,3.03
2022-08-04T01:13:17.961Z,3.43
2022-08-04T01:16:13.722Z,2.57
2022-08-04T01:18:40.080Z,2.70
2022-08-04T01:21:26.030Z,2.60
2022-08-04T01:24:10.978Z,2.60
2022-08-04T01:26:57.856Z,2.70
2022-08-04T01:29:46.942Z,2.33
2022-08-04T01:32:26.417Z,3.00
2022-08-04T01:34:56.614Z,2.40
2022-08-04T01:37:35.031Z,2.33
2022-08-04T01:40:05.512Z,3.30
2022-08-04T01:42:33.582Z,2.30
2022-08-04T01:45:04.892Z,2.63
2022-08-04T01:47:34.056Z,2.63
2022-08-04T01:50:04.407Z,2.53
2022-08-04T01:52:31.634Z,2.50
2022-08-04T01:54:58.133Z,3.47
2022-08-04T01:57:37.883Z,2.10
2022-08-04T02:00:06.795Z,2.33
2022-08-04T02:02:33.692Z,2.57
2022-08-04T02:05:00.181Z,2.53
2022-08-04T02:07:45.108Z,2.77
2022-08-04T02:10:14.506Z,2.47
2022-08-04T02:12:56.963Z,2.80
2022-08-04T02:15:38.419Z,2.70
2022-08-04T02:18:18.909Z,2.83
2022-08-04T02:20:47.038Z,2.70
2022-08-04T02:23:25.005Z,2.70
2022-08-04T02:26:00.795Z,3.17
2022-08-04T02:28:35.408Z,2.27
2022-08-04T02:31:01.759Z,2.67
2022-08-04T02:33:35.806Z,2.77
2022-08-04T02:36:03.495Z,2.80
2022-08-04T02:38:29.882Z,3.03
2022-08-04T02:40:59.181Z,2.67
2022-08-04T02:43:50.159Z,2.30
2022-08-04T02:46:18.056Z,3.37
2022-08-04T02:48:45.783Z,2.90
2022-08-04T02:51:13.154Z,2.87
2022-08-04T02:53:41.098Z,2.50
2022-08-04T02:56:08.821Z,3.17
2022-08-04T02:58:35.820Z,3.30
2022-08-04T03:01:02.522Z,3.07
2022-08-04T03:03:39.489Z,3.03
2022-08-04T03:06:11.886Z,3.10
2022-08-04T03:08:38.251Z,3.13
2022-08-04T03:11:07.749Z,3.13
2022-08-04T03:13:53.610Z,2.90
2022-08-04T03:16:23.002Z,3.10
2022-08-04T03:19:11.831Z,3.53
2022-08-04T03:22:07.002Z,2.57
2022-08-04T03:24:36.188Z,2.70
2022-08-04T03:27:14.667Z,3.23
2022-08-04T03:29:59.934Z,3.30
2022-08-04T03:32:35.443Z,2.90
2022-08-04T03:35:23.044Z,3.23
2022-08-04T03:38:00.795Z,2.73
2022-08-04T03:40:50.277Z,4.03
2022-08-04T03:43:57.115Z,3.43
2022-08-04T03:46:40.458Z,3.37
2022-08-04T03:49:09.842Z,4.30
2022-08-04T03:52:01.186Z,3.30
2022-08-04T03:55:02.928Z,3.17
2022-08-04T03:57:39.833Z,2.70
2022-08-04T04:00:10.910Z,2.73
2022-08-04T04:02:46.258Z,3.40
2022-08-04T04:05:23.999Z,3.47
2022-08-04T04:08:19.644Z,2.93
2022-08-04T04:10:54.886Z,3.00
2022-08-04T04:13:21.271Z,3.53
2022-08-04T04:15:50.114Z,3.20
2022-08-04T04:18:23.655Z,3.37
2022-08-04T04:20:59.188Z,3.93
2022-08-04T04:23:37.370Z,3.40
2022-08-04T04:26:07.181Z,3.20
2022-08-04T04:28:52.186Z,2.83
2022-08-04T04:31:37.382Z,2.90
2022-08-04T04:34:20.330Z,3.17
2022-08-04T04:36:50.894Z,3.60
2022-08-04T04:39:17.545Z,3.37
2022-08-04T04:41:43.946Z,3.30
2022-08-04T04:44:19.547Z,3.30
2022-08-04T04:47:09.287Z,3.07
2022-08-04T04:49:35.685Z,2.87
2022-08-04T04:52:11.091Z,2.67
2022-08-04T04:54:56.435Z,2.73
2022-08-04T04:57:54.401Z,2.90
2022-08-04T05:00:13.286Z,3.20
2022-08-04T05:02:39.833Z,2.90
2022-08-04T05:05:24.931Z,3.50
2022-08-04T05:07:53.193Z,3.17
2022-08-04T05:10:19.576Z,3.33
2022-08-04T05:14:36.108Z,3.17
2022-08-04T05:15:36.087Z,3.30
2022-08-04T05:18:02.891Z,3.20
2022-08-04T05:20:34.330Z,3.40
2022-08-04T05:23:09.175Z,3.07
2022-08-04T05:25:37.468Z,2.97
2022-08-04T05:28:05.786Z,2.73
2022-08-04T05:30:35.127Z,3.20
2022-08-04T05:33:09.745Z,3.00
2022-08-04T05:36:18.658Z,2.83
2022-08-04T05:38:29.771Z,2.60
2022-08-04T05:40:56.768Z,3.00
2022-08-04T05:43:23.818Z,2.90
2022-08-04T05:45:51.997Z,2.27
2022-08-04T05:48:18.885Z,2.40
2022-08-04T05:50:46.119Z,2.30
2022-08-04T05:53:13.178Z,2.47
2022-08-04T05:55:49.009Z,2.90
2022-08-04T05:58:26.803Z,2.43
2022-08-04T06:00:54.277Z,2.60
2022-08-04T06:03:21.338Z,2.70
2022-08-04T06:05:48.208Z,2.55
2022-08-04T06:08:14.680Z,2.30
2022-08-04T06:10:42.586Z,2.20
2022-08-04T06:13:46.688Z,2.53
2022-08-04T06:15:59.451Z,2.53
2022-08-04T06:19:59.308Z,2.42
2022-08-04T06:21:17.104Z,2.55
2022-08-04T06:23:53.189Z,3.08
2022-08-04T06:26:25.287Z,2.63
2022-08-04T06:28:52.921Z,2.13
2022-08-04T06:32:29.845Z,2.38
2022-08-04T06:34:30.245Z,2.58
2022-08-04T06:36:57.443Z,2.38
2022-08-04T06:39:25.293Z,2.63
2022-08-04T06:41:53.537Z,2.90
2022-08-04T06:44:40.738Z,2.55
2022-08-04T06:47:07.365Z,2.75
2022-08-04T06:49:44.205Z,2.67
2022-08-04T06:52:21.619Z,3.05
2022-08-04T06:54:48.531Z,2.40
2022-08-04T06:57:16.721Z,2.20
2022-08-04T06:59:44.268Z,2.10
2022-08-04T07:02:18.485Z,2.45
2022-08-04T07:04:44.998Z,2.22
2022-08-04T07:07:12.120Z,2.50
2022-08-04T07:09:39.259Z,2.40
2022-08-04T07:12:06.481Z,2.38
2022-08-04T07:14:36.096Z,2.53
2022-08-04T07:17:06.415Z,2.50
2022-08-04T07:19:33.260Z,2.63
2022-08-04T07:22:06.523Z,2.92
2022-08-04T07:24:46.788Z,2.50
2022-08-04T07:27:17.136Z,3.00
2022-08-04T07:29:43.775Z,2.22
2022-08-04T07:32:11.118Z,2.58
2022-08-04T07:34:38.370Z,2.00
2022-08-04T07:37:05.544Z,2.30
2022-08-04T07:39:33.039Z,2.58
2022-08-04T07:42:17.995Z,2.10
2022-08-04T07:44:45.080Z,2.15
2022-08-04T07:47:11.930Z,2.22
2022-08-04T07:49:55.001Z,2.10
2022-08-04T07:52:24.954Z,2.83
2022-08-04T07:54:51.656Z,2.20
2022-08-04T07:57:39.809Z,2.10
2022-08-04T08:00:06.057Z,2.63
2022-08-04T08:02:33.689Z,1.90
2022-08-04T08:05:00.347Z,2.40
2022-08-04T08:07:26.804Z,2.20
2022-08-04T08:09:53.312Z,2.35
2022-08-04T08:12:37.543Z,2.42
2022-08-04T08:15:08.202Z,2.50
2022-08-04T08:17:58.940Z,2.58
2022-08-04T08:20:29.732Z,2.35
2022-08-04T08:22:56.809Z,2.08
2022-08-04T08:25:23.260Z,2.30
2022-08-04T08:27:55.796Z,1.98
2022-08-04T08:30:24.007Z,2.40
2022-08-04T08:32:50.747Z,2.30
2022-08-04T08:35:17.642Z,1.83
2022-08-04T08:37:56.463Z,1.73
2022-08-04T08:40:40.274Z,2.22
2022-08-04T08:44:04.701Z,1.98
2022-08-04T08:46:49.002Z,2.00
2022-08-04T08:50:02.765Z,1.85
2022-08-04T08:53:00.535Z,2.05
2022-08-04T08:55:21.780Z,1.98
2022-08-04T08:58:00.570Z,1.90
2022-08-04T09:00:31.618Z,1.73
2022-08-04T09:03:04.489Z,1.50
2022-08-04T09:05:31.647Z,1.60
2022-08-04T09:08:06.313Z,2.03
2022-08-04T09:10:41.753Z,1.98
2022-08-04T09:13:16.790Z,1.45
2022-08-04T09:16:01.684Z,2.60
2022-08-04T09:18:32.779Z,2.30
2022-08-04T09:21:17.890Z,2.13
2022-08-04T09:23:50.315Z,2.10
2022-08-04T09:26:25.928Z,2.00
2022-08-04T09:29:10.944Z,2.20
2022-08-04T09:31:51.395Z,2.10
2022-08-04T09:35:03.564Z,1.90
2022-08-04T09:37:45.596Z,1.58
2022-08-04T09:40:29.016Z,1.88
2022-08-04T09:43:20.177Z,1.60
2022-08-04T09:46:01.176Z,1.90
2022-08-04T09:48:46.352Z,1.92
2022-08-04T09:51:25.719Z,1.50
2022-08-04T09:54:30.497Z,1.98
2022-08-04T09:57:15.402Z,1.63
2022-08-04T09:59:57.242Z,1.80
2022-08-04T10:02:25.773Z,1.88
2022-08-04T10:04:55.135Z,2.00
2022-08-04T10:08:06.965Z,1.77
2022-08-04T10:10:40.576Z,2.42
2022-08-04T10:13:20.667Z,1.65
2022-08-04T10:16:00.914Z,2.10
2022-08-04T10:18:45.594Z,1.50
2022-08-04T10:21:15.616Z,2.25
2022-08-04T10:23:55.281Z,1.73
2022-08-04T10:26:23.155Z,2.00
2022-08-04T10:29:01.220Z,1.80
2022-08-04T10:31:30.056Z,1.63
2022-08-04T10:34:03.141Z,2.05
2022-08-04T10:36:33.050Z,2.15
2022-08-04T10:39:07.679Z,1.75
2022-08-04T10:41:38.979Z,2.13
2022-08-04T10:44:23.619Z,6.88
2022-08-04T10:46:52.815Z,2.00
2022-08-04T10:49:23.398Z,1.88
2022-08-04T10:52:01.910Z,2.10
2022-08-04T10:54:28.378Z,1.75
2022-08-04T10:57:03.718Z,2.13
2022-08-04T10:59:34.839Z,1.67
2022-08-04T11:02:08.550Z,2.13
2022-08-04T11:04:44.336Z,1.88
2022-08-04T11:07:11.395Z,1.67
2022-08-04T11:09:38.431Z,1.80
2022-08-04T11:12:10.592Z,1.38
2022-08-04T11:14:45.374Z,1.83
2022-08-04T11:17:16.721Z,1.58
2022-08-04T11:20:07.671Z,1.70
2022-08-04T11:22:47.906Z,1.73
2022-08-04T11:25:22.403Z,1.70
2022-08-04T11:28:07.850Z,1.70
2022-08-04T11:30:51.053Z,1.35
2022-08-04T11:33:20.343Z,1.58
2022-08-04T11:36:02.111Z,1.70
2022-08-04T11:38:33.449Z,1.80
2022-08-04T11:41:04.347Z,1.75
2022-08-04T11:44:01.934Z,1.80
2022-08-04T11:46:30.734Z,1.80
2022-08-04T11:49:02.977Z,1.85
2022-08-04T11:51:30.656Z,1.65
2022-08-04T11:53:57.156Z,1.42
2022-08-04T11:56:36.509Z,2.20
2022-08-04T11:59:05.177Z,1.67
2022-08-04T12:01:38.463Z,1.80
2022-08-04T12:04:27.141Z,1.70
2022-08-04T12:07:29.567Z,1.67
2022-08-04T12:10:40.980Z,1.60
2022-08-04T12:13:08.811Z,1.45
2022-08-04T12:15:41.031Z,1.40
2022-08-04T12:18:14.127Z,1.45
2022-08-04T12:20:44.982Z,1.30
2022-08-04T12:23:23.198Z,1.60
2022-08-04T12:25:51.595Z,3.60
2022-08-04T12:28:24.275Z,1.20
2022-08-04T12:31:01.275Z,1.38
2022-08-04T12:34:02.694Z,0.98
2022-08-04T12:36:24.977Z,1.17
2022-08-04T12:39:10.605Z,1.48
2022-08-04T12:41:39.801Z,1.17
2022-08-04T12:44:32.629Z,1.20
2022-08-04T12:46:56.045Z,1.52
2022-08-04T12:49:44.397Z,1.30
2022-08-04T12:52:24.804Z,1.40
2022-08-04T12:55:01.176Z,1.30
2022-08-04T12:57:27.823Z,1.42
2022-08-04T12:59:57.093Z,1.52
2022-08-04T13:02:27.200Z,1.50
2022-08-04T13:04:54.444Z,1.33
2022-08-04T13:07:23.077Z,1.33
2022-08-04T13:09:50.247Z,1.73
2022-08-04T13:12:26.003Z,1.25
2022-08-04T13:15:09.865Z,1.27
2022-08-04T13:17:45.680Z,1.30
2022-08-04T13:20:15.835Z,1.27
2022-08-04T13:22:46.395Z,1.30
2022-08-04T13:26:40.382Z,1.30
2022-08-04T13:28:00.131Z,1.90
2022-08-04T13:30:28.308Z,1.25
2022-08-04T13:32:59.796Z,1.13
2022-08-04T13:35:54.758Z,1.30
2022-08-04T13:38:14.292Z,1.20
2022-08-04T13:40:43.978Z,0.95
2022-08-04T13:43:48.434Z,0.90
2022-08-04T13:46:09.811Z,1.05
2022-08-04T13:48:37.558Z,1.65
2022-08-04T13:51:07.667Z,1.40
2022-08-04T13:53:35.272Z,2.58
2022-08-04T13:56:02.870Z,4.18
2022-08-04T13:58:36.612Z,1.27
2022-08-04T14:01:13.184Z,1.30
2022-08-04T14:03:53.338Z,1.50
2022-08-04T14:06:23.778Z,1.38
2022-08-04T14:08:51.889Z,1.45
2022-08-04T14:12:09.340Z,1.48
2022-08-04T14:14:27.364Z,1.40
2022-08-04T14:16:58.073Z,1.80
2022-08-04T14:19:29.365Z,1.40
2022-08-04T14:21:57.632Z,1.35
2022-08-04T14:24:27.895Z,1.63
2022-08-04T14:26:59.216Z,1.70
2022-08-04T14:29:29.348Z,1.25
2022-08-04T14:32:06.218Z,1.30
2022-08-04T14:34:41.236Z,1.30
2022-08-04T14:37:16.806Z,1.20
2022-08-04T14:40:18.714Z,1.13
2022-08-04T14:42:43.772Z,1.58
2022-08-04T14:45:10.340Z,1.40
2022-08-04T14:47:52.701Z,1.23
2022-08-04T14:50:20.095Z,1.20
2022-08-04T14:52:46.600Z,1.10
2022-08-04T14:55:23.804Z,2.10
2022-08-04T14:58:34.353Z,1.83
2022-08-04T15:00:37.329Z,1.80
2022-08-04T15:03:08.620Z,1.85
2022-08-04T15:06:00.373Z,2.17
2022-08-04T15:08:22.855Z,12.45
2022-08-04T15:10:58.882Z,4.47
2022-08-04T15:13:29.464Z,2.85
2022-08-04T15:16:06.298Z,3.20
2022-08-04T15:18:35.020Z,3.17
2022-08-04T15:21:02.404Z,2.88
2022-08-04T15:23:39.354Z,3.80
2022-08-04T15:26:07.928Z,3.10
2022-08-04T15:28:35.929Z,3.65
2022-08-04T15:31:04.075Z,3.45
2022-08-04T15:33:33.773Z,3.63
2022-08-04T15:36:14.415Z,3.40
2022-08-04T15:38:44.990Z,3.58
2022-08-04T15:41:20.114Z,3.42
2022-08-04T15:44:05.298Z,2.83
2022-08-04T15:46:47.423Z,3.22
2022-08-04T15:49:23.544Z,2.95
2022-08-04T15:51:59.533Z,3.20
2022-08-04T15:54:32.741Z,3.05
2022-08-04T15:57:02.065Z,3.10
2022-08-04T15:59:55.592Z,3.20
2022-08-04T16:02:48.598Z,3.25
2022-08-04T16:05:17.798Z,3.88
2022-08-04T16:07:58.528Z,4.57
2022-08-04T16:10:31.082Z,3.78
2022-08-04T16:12:58.770Z,4.15
2022-08-04T16:15:44.043Z,4.75
2022-08-04T16:18:25.494Z,5.20
2022-08-04T16:20:54.348Z,9.40
2022-08-04T16:23:43.773Z,33.17
2022-08-04T16:26:07.218Z,5.25
2022-08-04T16:28:38.072Z,5.03
2022-08-04T16:31:09.302Z,4.57
2022-08-04T16:33:43.861Z,4.53
2022-08-04T16:36:12.434Z,4.25
2022-08-04T16:38:57.957Z,9.20
2022-08-04T16:41:43.160Z,3.80
2022-08-04T16:44:51.568Z,3.75
2022-08-04T16:47:34.558Z,4.50
2022-08-04T16:50:04.980Z,5.32
2022-08-04T16:52:31.395Z,10.43
2022-08-04T16:54:58.648Z,6.90
2022-08-04T16:57:25.094Z,6.00
2022-08-04T16:59:51.647Z,4.32
2022-08-04T17:02:23.782Z,3.55
2022-08-04T17:05:06.949Z,3.92
2022-08-04T17:08:02.230Z,3.60
2022-08-04T17:10:35.959Z,3.90
2022-08-04T17:14:03.927Z,4.75
2022-08-04T17:16:11.749Z,3.80
2022-08-04T17:18:41.137Z,3.80
2022-08-04T17:21:10.671Z,3.25
2022-08-04T17:24:15.111Z,3.67
2022-08-04T17:26:40.267Z,3.63
2022-08-04T17:29:09.018Z,3.53
2022-08-04T17:31:37.871Z,3.67
2022-08-04T17:34:14.143Z,3.90
2022-08-04T17:36:43.813Z,4.00
2022-08-04T17:39:17.056Z,4.50
2022-08-04T17:41:49.149Z,5.38
2022-08-04T17:44:15.821Z,3.90
2022-08-04T17:46:49.737Z,4.28
2022-08-04T17:49:19.368Z,3.95
2022-08-04T17:52:04.247Z,3.85
2022-08-04T17:54:39.552Z,3.83
2022-08-04T17:57:20.992Z,4.00
2022-08-04T17:59:59.444Z,4.30
2022-08-04T18:02:33.235Z,3.95
2022-08-04T18:05:07.661Z,4.15
2022-08-04T18:08:39.726Z,3.92
2022-08-04T18:10:52.182Z,4.10
2022-08-04T18:13:22.401Z,6.95
2022-08-04T18:15:51.115Z,4.03
2022-08-04T18:18:23.617Z,3.50
2022-08-04T18:20:50.527Z,7.10
2022-08-04T18:23:17.152Z,11.55
2022-08-04T18:25:51.072Z,4.53
2022-08-04T18:28:22.604Z,4.20
2022-08-04T18:30:56.114Z,3.30
2022-08-04T18:33:39.462Z,3.13
2022-08-04T18:36:33.963Z,2.78
2022-08-04T18:38:55.711Z,3.15
2022-08-04T18:41:24.630Z,2.70
2022-08-04T18:43:55.812Z,3.03
2022-08-04T18:46:23.892Z,2.70
2022-08-04T18:48:53.776Z,3.08
2022-08-04T18:51:23.714Z,3.08
2022-08-04T18:53:58.170Z,3.10
2022-08-04T18:56:30.109Z,3.42
2022-08-04T18:59:03.131Z,3.58
2022-08-04T19:02:17.230Z,3.00
2022-08-04T19:04:32.875Z,3.63
2022-08-04T19:07:23.381Z,3.17
2022-08-04T19:09:51.058Z,3.17
2022-08-04T19:12:26.430Z,2.50
2022-08-04T19:14:58.006Z,3.65
2022-08-04T19:17:56.888Z,2.90
2022-08-04T19:20:24.314Z,2.58
2022-08-04T19:24:29.899Z,2.50
2022-08-04T19:26:01.312Z,2.90
2022-08-04T19:28:29.305Z,2.80
2022-08-04T19:30:57.164Z,2.90
2022-08-04T19:33:25.374Z,3.13
2022-08-04T19:35:52.782Z,2.80
2022-08-04T19:38:20.715Z,6.57
2022-08-04T19:40:50.689Z,20.10
2022-08-04T19:43:20.856Z,3.08
2022-08-04T19:45:50.187Z,3.43
2022-08-04T19:48:19.467Z,2.40
2022-08-04T19:50:46.627Z,3.03
2022-08-04T19:53:19.676Z,2.72
2022-08-04T19:55:49.411Z,2.42
2022-08-04T19:58:16.932Z,3.17
2022-08-04T20:04:08.328Z,2.90
2022-08-04T20:06:16.239Z,3.10
2022-08-04T20:08:48.157Z,3.40
2022-08-04T20:11:15.958Z,3.17
2022-08-04T20:13:43.057Z,2.93
2022-08-04T20:16:28.998Z,2.50
2022-08-04T20:19:00.773Z,2.37
2022-08-04T20:21:36.583Z,2.93
2022-08-04T20:24:40.010Z,2.90
2022-08-04T20:27:07.645Z,2.72
2022-08-04T20:29:40.385Z,2.80
2022-08-04T20:32:08.813Z,2.45
2022-08-04T20:34:36.318Z,2.70
2022-08-04T20:37:03.122Z,3.10
2022-08-04T20:39:30.478Z,2.83
2022-08-04T20:41:57.085Z,2.73
2022-08-04T20:44:24.283Z,2.50
2022-08-04T20:46:50.882Z,2.93
2022-08-04T20:49:17.342Z,2.87
2022-08-04T20:51:44.067Z,2.67
2022-08-04T20:54:16.570Z,3.03
2022-08-04T20:56:50.616Z,2.50
2022-08-04T20:59:17.774Z,2.37
2022-08-04T21:01:45.482Z,2.33
2022-08-04T21:04:34.376Z,3.40
2022-08-04T21:07:02.497Z,3.17
2022-08-04T21:09:38.020Z,3.03
2022-08-04T21:12:09.867Z,2.90
2022-08-04T21:14:36.306Z,6.30
2022-08-04T21:17:03.998Z,4.03
2022-08-04T21:19:33.867Z,4.33
2022-08-04T21:22:04.805Z,4.67
2022-08-04T21:24:31.228Z,4.07
2022-08-04T21:26:57.702Z,5.03
2022-08-04T21:29:34.712Z,6.10
2022-08-04T21:32:03.864Z,5.10
2022-08-04T21:34:39.153Z,4.83
2022-08-04T21:37:09.012Z,6.23
2022-08-04T21:39:50.838Z,6.30
2022-08-04T21:42:28.877Z,6.13
2022-08-04T21:45:09.058Z,5.83
2022-08-04T21:47:45.777Z,6.57
2022-08-04T21:50:13.247Z,5.57
2022-08-04T21:52:46.607Z,6.10
2022-08-04T21:55:13.027Z,6.17
2022-08-04T21:57:41.897Z,6.13
2022-08-04T22:00:10.698Z,6.70
2022-08-04T22:02:37.518Z,6.07
2022-08-04T22:05:07.302Z,8.47
2022-08-04T22:07:50.360Z,7.10
2022-08-04T22:10:22.569Z,7.93
2022-08-04T22:12:59.522Z,7.90
2022-08-04T22:16:04.496Z,8.67
2022-08-04T22:18:19.539Z,9.20
2022-08-04T22:20:50.952Z,9.33
2022-08-04T22:23:19.265Z,8.90
2022-08-04T22:25:55.900Z,8.50
2022-08-04T22:28:27.888Z,8.87
2022-08-04T22:30:55.313Z,9.13
2022-08-04T22:33:22.870Z,9.13
2022-08-04T22:35:50.040Z,10.80
2022-08-04T22:38:31.679Z,10.03
2022-08-04T22:41:07.089Z,10.93
2022-08-04T22:43:34.770Z,10.30
2022-08-04T22:46:08.007Z,10.40
2022-08-04T22:48:35.551Z,10.27
2022-08-04T22:51:02.615Z,10.47
2022-08-04T22:53:29.660Z,10.30
2022-08-04T22:56:07.673Z,10.10
2022-08-04T22:58:40.275Z,9.03
2022-08-04T23:01:07.440Z,9.97
2022-08-04T23:03:37.361Z,9.30
2022-08-04T23:06:10.943Z,10.90
2022-08-04T23:08:38.593Z,9.33
2022-08-04T23:11:08.598Z,10.73
2022-08-04T23:13:35.970Z,9.67
2022-08-04T23:16:09.942Z,9.63
2022-08-04T23:18:37.100Z,9.17
2022-08-04T23:21:08.635Z,10.17
2022-08-04T23:23:36.345Z,9.97
2022-08-04T23:26:14.575Z,8.87
2022-08-04T23:28:41.352Z,9.90
2022-08-04T23:31:10.299Z,9.77
2022-08-04T23:33:49.191Z,9.03
2022-08-04T23:36:18.166Z,10.13
2022-08-04T23:38:45.238Z,9.80
2022-08-04T23:41:17.206Z,9.07
2022-08-04T23:43:55.542Z,9.23
2022-08-04T23:46:22.454Z,9.70
2022-08-04T23:48:48.988Z,8.83
2022-08-04T23:51:15.776Z,8.07
2022-08-04T23:54:01.823Z,7.50
2022-08-04T23:56:31.882Z,7.47
2022-08-04T23:58:58.410Z,7.80
